Shin Fuji Maru — JI3572 — position and weather

sailwx.info

Track history (hours):
 
Tides and Currents Weather Stations Pressure Air Temp Water Temp Dewpoint Dewpoint Depression Visibility Wind Speed Wind Dir Waves Ship Positions

Shin Fuji Maru

Last reported at 2017-Oct-31 05:13 UTC. Time now 2017-Nov-17 23:15 UTC.
Position N 35°02' E 139°41'.
Warning: this ship's position is 17 days out of date.

Length 27 m; draft 4.5 m.

Type: Cargo ship. MMSI: 431300208.

Date/timePositionNaut miles runAvg speedWind from/ knotsBaromVisibWave heightAir tempDewpointWater temp
2017-Oct-31 05:13N 35°02' E 139°41'2 9.6
2017-Oct-31 05:00N 35°04' E 139°42'5 9.6
2017-Oct-31 04:29N 35°09' E 139°45'5 9.7
2017-Oct-31 03:59N 35°13' E 139°46'7 9.3
2017-Oct-31 03:12N 35°20' E 139°43'2 9.4
2017-Oct-31 02:59N 35°22' E 139°43'5 8.7
2017-Oct-31 02:28N 35°26' E 139°43'2 3.2
2017-Oct-31 01:56N 35°27' E 139°41'0 0.1
2017-Oct-31 01:14N 35°27' E 139°41'0 0.0
2017-Oct-31 00:56N 35°27' E 139°41'0 0.0
2017-Oct-31 00:20N 35°27' E 139°41'0 0.0
2017-Oct-30 23:59N 35°27' E 139°41'0 0.0
2017-Oct-30 23:29N 35°27' E 139°41'0 0.0
2017-Oct-30 22:56N 35°27' E 139°41'0 0.0
2017-Oct-30 22:08N 35°27' E 139°41'0 0.0
2017-Oct-30 21:59N 35°27' E 139°41'0 0.0
2017-Oct-30 21:23N 35°27' E 139°41'0 0.0
2017-Oct-30 20:53N 35°27' E 139°41'0 0.0
2017-Oct-30 20:29N 35°27' E 139°41'0 0.0
2017-Oct-30 19:56N 35°27' E 139°41'0 0.0
2017-Oct-30 19:23N 35°27' E 139°41'0 0.0
2017-Oct-30 18:53N 35°27' E 139°41'0 0.0
2017-Oct-30 18:23N 35°27' E 139°41'0 0.0
2017-Oct-30 17:59N 35°27' E 139°41'0 0.0
2017-Oct-30 17:29N 35°27' E 139°41'0 0.0
2017-Oct-30 16:59N 35°27' E 139°41'0 0.0
2017-Oct-30 16:29N 35°27' E 139°41'0 0.0
2017-Oct-30 15:53N 35°27' E 139°41'0 0.0
2017-Oct-30 15:29N 35°27' E 139°41'0 0.0
2017-Oct-30 14:56N 35°27' E 139°41'0 0.0
2017-Oct-30 14:29N 35°27' E 139°41'0 0.0
2017-Oct-30 13:26N 35°27' E 139°41'0 0.0
2017-Oct-30 12:59N 35°27' E 139°41'0 0.0
2017-Oct-30 12:26N 35°27' E 139°41'0 0.0
2017-Oct-30 11:53N 35°27' E 139°41'0 0.0
2017-Oct-30 11:20N 35°27' E 139°41'0 0.0
2017-Oct-30 10:59N 35°27' E 139°41'0 0.0
2017-Oct-30 10:29N 35°27' E 139°41'0 0.0
2017-Oct-30 09:59N 35°27' E 139°41'0 0.0
2017-Oct-30 09:26N 35°27' E 139°41'0 0.0
2017-Oct-30 08:53N 35°27' E 139°41'0 0.0
2017-Oct-30 08:29N 35°27' E 139°41'0 0.0
2017-Oct-30 07:53N 35°27' E 139°41'0 0.0
2017-Oct-30 07:26N 35°27' E 139°41'0 0.0
2017-Oct-30 06:59N 35°27' E 139°41'0 0.0
2017-Oct-30 06:20N 35°27' E 139°41'0 0.0
2017-Oct-30 05:56N 35°27' E 139°41'0 0.0
2017-Oct-30 05:23N 35°27' E 139°41'0 0.0
2017-Oct-30 04:38N 35°27' E 139°41'0 0.0
2017-Oct-30 04:23N 35°27' E 139°41'0 0.0
2017-Oct-30 03:59N 35°27' E 139°41'0 0.0
2017-Oct-30 03:29N 35°27' E 139°41'0 0.0
2017-Oct-30 02:56N 35°27' E 139°41'0 0.0
2017-Oct-30 02:23N 35°27' E 139°41'0 0.0
2017-Oct-30 01:59N 35°27' E 139°41'0 0.0
2017-Oct-30 01:29N 35°27' E 139°41'0 0.0
2017-Oct-30 00:59N 35°27' E 139°41'0 0.0
2017-Oct-30 00:29N 35°27' E 139°41'0 0.0
2017-Oct-29 23:56N 35°27' E 139°41'0 0.0
2017-Oct-29 23:29N 35°27' E 139°41'0 0.0
2017-Oct-29 22:59N 35°27' E 139°41'0 0.0
2017-Oct-29 22:26N 35°27' E 139°41'0 0.0
2017-Oct-29 21:59N 35°27' E 139°41'0 0.0
2017-Oct-29 21:29N 35°27' E 139°41'0 0.0
2017-Oct-29 20:59N 35°27' E 139°41'0 0.0
2017-Oct-29 20:23N 35°27' E 139°41'0 0.0
2017-Oct-29 19:59N 35°27' E 139°41'0 0.0
2017-Oct-29 19:29N 35°27' E 139°41'0 0.0
2017-Oct-29 18:44N 35°27' E 139°41'0 0.0
2017-Oct-29 18:29N 35°27' E 139°41'0 0.0
2017-Oct-29 17:50N 35°27' E 139°41'0 0.0
2017-Oct-29 17:23N 35°27' E 139°41'0 0.0
2017-Oct-29 16:56N 35°27' E 139°41'0 0.0
2017-Oct-29 16:29N 35°27' E 139°41'0 0.0
2017-Oct-29 15:53N 35°27' E 139°41'0 0.0
2017-Oct-29 15:29N 35°27' E 139°41'0 0.0
2017-Oct-29 14:56N 35°27' E 139°41'0 0.0
2017-Oct-29 14:20N 35°27' E 139°41'0 0.0
2017-Oct-29 13:59N 35°27' E 139°41'0 0.0
2017-Oct-29 13:29N 35°27' E 139°41'0 0.0
2017-Oct-29 12:56N 35°27' E 139°41'0 0.0
2017-Oct-29 12:17N 35°27' E 139°41'0 0.0
2017-Oct-29 11:59N 35°27' E 139°41'0 0.0
2017-Oct-29 11:29N 35°27' E 139°41'0 0.0
2017-Oct-29 10:35N 35°27' E 139°41'0 0.0
2017-Oct-29 10:14N 35°27' E 139°41'0 0.0
2017-Oct-29 09:59N 35°27' E 139°41'0 0.0
2017-Oct-29 09:17N 35°27' E 139°41'0 0.0
2017-Oct-29 08:59N 35°27' E 139°41'0 0.0
2017-Oct-29 08:29N 35°27' E 139°41'0 0.0
2017-Oct-29 07:59N 35°27' E 139°41'0 0.0
2017-Oct-29 07:29N 35°27' E 139°41'0 0.0
2017-Oct-29 06:57N 35°27' E 139°41'0 0.0
2017-Oct-29 06:29N 35°27' E 139°41'0 0.0
2017-Oct-29 05:53N 35°27' E 139°41'0 0.0
2017-Oct-29 05:26N 35°27' E 139°41'0 0.0
2017-Oct-29 04:59N 35°27' E 139°41'0 0.0
2017-Oct-29 03:50N 35°27' E 139°41'0 0.0
2017-Oct-28 17:11N 35°27' E 139°41'0 0.0
2017-Oct-28 16:53N 35°27' E 139°41'0 0.0
2017-Oct-28 16:23N 35°27' E 139°41'0 0.0
2017-Oct-28 15:59N 35°27' E 139°41'0 0.0
2017-Oct-28 15:29N 35°27' E 139°41'0 0.0
2017-Oct-28 14:35N 35°27' E 139°41'0 0.0
2017-Oct-28 14:26N 35°27' E 139°41'0 0.0
2017-Oct-28 13:59N 35°27' E 139°41'0 0.0
2017-Oct-28 13:26N 35°27' E 139°41'0 0.0
2017-Oct-28 12:56N 35°27' E 139°41'0 0.0
2017-Oct-28 12:29N 35°27' E 139°41'0 0.0
2017-Oct-28 11:17N 35°27' E 139°41'0 0.0
2017-Oct-28 10:47N 35°27' E 139°41'0 0.0
2017-Oct-28 10:20N 35°27' E 139°41'0 0.0
2017-Oct-28 09:56N 35°27' E 139°41'0 0.0
2017-Oct-28 09:29N 35°27' E 139°41'0 0.0
2017-Oct-28 08:26N 35°27' E 139°41'0 0.0
2017-Oct-28 07:53N 35°27' E 139°41'0 0.0
2017-Oct-28 07:29N 35°27' E 139°41'0 0.0
2017-Oct-28 06:11N 35°27' E 139°41'0 0.0
2017-Oct-28 05:35N 35°27' E 139°41'0 0.0
2017-Oct-28 05:14N 35°27' E 139°41'0 0.0
2017-Oct-28 04:44N 35°27' E 139°41'0 0.0
2017-Oct-28 03:47N 35°27' E 139°41'0 0.0
2017-Oct-28 03:14N 35°27' E 139°41'0 0.0
2017-Oct-28 02:53N 35°27' E 139°41'0 0.0
2017-Oct-28 02:17N 35°27' E 139°41'0 0.0
2017-Oct-28 01:53N 35°27' E 139°41'0 0.0
2017-Oct-28 01:23N 35°27' E 139°41'0 0.0
2017-Oct-27 23:53N 35°27' E 139°41'0 0.0
2017-Oct-27 23:29N 35°27' E 139°41'0 0.0
2017-Oct-27 22:59N 35°27' E 139°41'0 0.0
2017-Oct-27 22:20N 35°27' E 139°41'0 0.0
2017-Oct-27 21:56N 35°27' E 139°41'0 0.0
2017-Oct-27 21:26N 35°27' E 139°41'0 0.0
2017-Oct-27 20:47N 35°27' E 139°41'0 0.0
2017-Oct-27 20:26N 35°27' E 139°41'0 0.0
2017-Oct-27 14:41N 35°27' E 139°41'0 0.0
2017-Oct-27 14:17N 35°27' E 139°41'0 0.0
2017-Oct-27 12:50N 35°27' E 139°41'0 0.0
2017-Oct-27 12:14N 35°27' E 139°41'0 0.0
2017-Oct-27 11:59N 35°27' E 139°41'0 0.0
2017-Oct-27 11:26N 35°27' E 139°41'0 0.0
2017-Oct-27 10:59N 35°27' E 139°41'0 0.0
2017-Oct-27 10:23N 35°27' E 139°41'0 0.0
2017-Oct-27 09:50N 35°27' E 139°41'0 0.0
2017-Oct-27 09:17N 35°27' E 139°41'0 0.0
2017-Oct-27 08:59N 35°27' E 139°41'0 0.0
2017-Oct-27 08:17N 35°27' E 139°41'0 0.0
2017-Oct-27 07:59N 35°27' E 139°41'0 0.0
2017-Oct-27 07:29N 35°27' E 139°41'0 0.0
2017-Oct-27 06:59N 35°27' E 139°41'0 0.0
2017-Oct-27 06:23N 35°27' E 139°41'0 0.0
2017-Oct-27 05:56N 35°27' E 139°41'0 0.0
2017-Oct-27 05:26N 35°27' E 139°41'0 0.0
2017-Oct-27 04:38N 35°27' E 139°41'0 0.0
2017-Oct-27 04:11N 35°27' E 139°41'0 0.0
2017-Oct-27 03:53N 35°27' E 139°41'0 0.0
2017-Oct-27 02:56N 35°27' E 139°41'0 0.0
2017-Oct-27 02:29N 35°27' E 139°41'0 0.0
2017-Oct-27 01:47N 35°27' E 139°41'0 0.0
2017-Oct-27 01:02N 35°27' E 139°41'0 0.0
2017-Oct-27 00:53N 35°27' E 139°41'0 0.0
2017-Oct-27 00:29N 35°27' E 139°41'0 0.0
2017-Oct-26 23:56N 35°27' E 139°41'0 0.0
2017-Oct-26 23:14N 35°27' E 139°41'0 0.0
2017-Oct-26 22:50N 35°27' E 139°41'0 0.0
2017-Oct-26 22:26N 35°27' E 139°41'0 0.0
2017-Oct-26 21:59N 35°27' E 139°41'0 0.0
2017-Oct-26 21:26N 35°27' E 139°41'0 0.0
2017-Oct-26 20:59N 35°27' E 139°41'0 0.0
2017-Oct-26 20:23N 35°27' E 139°41'0 0.0
2017-Oct-26 19:59N 35°27' E 139°41'0 0.0
2017-Oct-26 19:17N 35°27' E 139°41'0 0.0
2017-Oct-26 18:50N 35°27' E 139°41'0 0.0
2017-Oct-26 17:05N 35°27' E 139°41'0 0.0
2017-Oct-26 16:44N 35°27' E 139°41'0 0.0
2017-Oct-26 16:20N 35°27' E 139°41'0 0.0
2017-Oct-26 15:05N 35°27' E 139°41'0 0.0
2017-Oct-26 14:59N 35°27' E 139°41'0 0.0
2017-Oct-26 13:35N 35°27' E 139°41'0 0.0
2017-Oct-26 13:29N 35°27' E 139°41'0 0.0
2017-Oct-26 12:59N 35°27' E 139°41'0 0.0
2017-Oct-26 12:29N 35°27' E 139°41'0 0.0
2017-Oct-26 11:44N 35°27' E 139°41'0 0.0
2017-Oct-26 11:29N 35°27' E 139°41'0 0.0
2017-Oct-26 10:59N 35°27' E 139°41'0 0.0
2017-Oct-26 10:29N 35°27' E 139°41'0 0.0
2017-Oct-26 09:11N 35°27' E 139°41'0 0.0
2017-Oct-26 08:59N 35°27' E 139°41'0 0.0
2017-Oct-26 08:29N 35°27' E 139°41'0 0.0
2017-Oct-26 07:59N 35°27' E 139°41'0 0.0
2017-Oct-26 07:29N 35°27' E 139°41'0 0.0
2017-Oct-26 06:53N 35°27' E 139°41'0 0.0
2017-Oct-26 06:23N 35°27' E 139°41'0 0.0
2017-Oct-26 05:56N 35°27' E 139°41'0 0.0
2017-Oct-26 05:20N 35°27' E 139°41'0 0.0
2017-Oct-26 04:59N 35°27' E 139°41'0 0.0
2017-Oct-26 03:17N 35°27' E 139°41'0 0.0
2017-Oct-26 02:56N 35°27' E 139°41'0 0.0
2017-Oct-26 02:20N 35°27' E 139°41'0 0.0
2017-Oct-26 01:59N 35°27' E 139°41'0 0.0
2017-Oct-26 00:29N 35°27' E 139°41'0 0.0
2017-Oct-25 23:53N 35°27' E 139°41'0 0.0
2017-Oct-25 23:26N 35°27' E 139°41'0 0.0
2017-Oct-25 22:56N 35°27' E 139°41'0 0.0
2017-Oct-25 22:29N 35°27' E 139°41'0 0.0
2017-Oct-25 21:53N 35°27' E 139°41'0 0.0
2017-Oct-25 21:17N 35°27' E 139°41'0 0.0
2017-Oct-25 20:56N 35°27' E 139°41'0 0.0
2017-Oct-25 19:02N 35°27' E 139°41'0 0.0
2017-Oct-25 18:59N 35°27' E 139°41'0 0.0
2017-Oct-25 18:26N 35°27' E 139°41'0 0.0
2017-Oct-25 16:29N 35°27' E 139°41'0 0.0
2017-Oct-25 15:44N 35°27' E 139°41'0 0.0
2017-Oct-25 14:41N 35°27' E 139°41'0 0.0
2017-Oct-25 14:17N 35°27' E 139°41'0 0.0
2017-Oct-25 13:50N 35°27' E 139°41'0 0.0
2017-Oct-25 11:41N 35°27' E 139°41'0 0.0
2017-Oct-25 11:29N 35°27' E 139°41'0 0.0
2017-Oct-25 09:53N 35°27' E 139°41'0 0.0
2017-Oct-25 09:23N 35°27' E 139°41'0 0.0
2017-Oct-25 08:59N 35°27' E 139°41'0 0.0
2017-Oct-25 08:02N 35°27' E 139°41'0 0.0
2017-Oct-25 07:50N 35°27' E 139°41'0 0.0
2017-Oct-25 07:17N 35°27' E 139°41'0 0.0
2017-Oct-25 06:53N 35°27' E 139°41'0 0.0
2017-Oct-25 06:20N 35°27' E 139°41'0 0.0
2017-Oct-25 05:56N 35°27' E 139°41'0 0.0
2017-Oct-25 05:26N 35°27' E 139°41'0 0.0
2017-Oct-25 04:59N 35°27' E 139°41'0 0.0
2017-Oct-25 04:26N 35°27' E 139°41'0 0.0
2017-Oct-25 03:56N 35°27' E 139°41'0 0.0
2017-Oct-25 03:26N 35°27' E 139°41'0 0.0
2017-Oct-25 02:50N 35°27' E 139°41'0 0.0
2017-Oct-25 02:17N 35°27' E 139°41'0 0.0
2017-Oct-25 01:47N 35°27' E 139°41'0 0.0
2017-Oct-25 01:26N 35°27' E 139°41'0 0.0
2017-Oct-25 00:56N 35°27' E 139°41'0 0.0
2017-Oct-25 00:26N 35°27' E 139°41'0 0.0
2017-Oct-24 23:59N 35°27' E 139°41'0 0.0
2017-Oct-24 23:17N 35°27' E 139°41'0 0.0
2017-Oct-24 22:47N 35°27' E 139°41'0 0.0
2017-Oct-24 22:29N 35°27' E 139°41'0 0.0
2017-Oct-24 21:38N 35°27' E 139°41'0 0.0
2017-Oct-24 21:23N 35°27' E 139°41'0 0.0
2017-Oct-24 20:53N 35°27' E 139°41'0 0.0
2017-Oct-24 20:29N 35°27' E 139°41'0 0.0
2017-Oct-24 17:02N 35°27' E 139°41'0 0.0
2017-Oct-24 16:56N 35°27' E 139°41'0 0.0
2017-Oct-24 16:29N 35°27' E 139°41'0 0.0
2017-Oct-24 15:53N 35°27' E 139°41'0 0.0
2017-Oct-24 15:11N 35°27' E 139°41'0 0.0
2017-Oct-24 14:47N 35°27' E 139°41'0 0.0
2017-Oct-24 14:20N 35°27' E 139°41'0 0.0
2017-Oct-24 13:59N 35°27' E 139°41'0 0.0
2017-Oct-24 13:17N 35°27' E 139°41'0 0.0
2017-Oct-24 12:53N 35°27' E 139°41'0 0.0
2017-Oct-24 12:29N 35°27' E 139°41'0 0.0
2017-Oct-24 11:47N 35°27' E 139°41'0 0.0
2017-Oct-24 11:29N 35°27' E 139°41'0 0.0
2017-Oct-24 10:56N 35°27' E 139°41'0 0.0
2017-Oct-24 09:38N 35°27' E 139°41'0 0.0
2017-Oct-24 09:29N 35°27' E 139°41'0 0.0
2017-Oct-24 08:59N 35°27' E 139°41'0 0.0
2017-Oct-24 08:29N 35°27' E 139°41'0 0.0
2017-Oct-24 07:56N 35°27' E 139°41'0 0.0
2017-Oct-24 07:29N 35°27' E 139°41'0 0.0
2017-Oct-24 06:50N 35°27' E 139°41'0 0.0
2017-Oct-24 06:02N 35°27' E 139°41'0 0.0
2017-Oct-24 04:47N 35°27' E 139°41'0 0.0
2017-Oct-24 04:23N 35°27' E 139°41'0 0.0
2017-Oct-24 03:53N 35°27' E 139°41'0 0.0
2017-Oct-24 03:29N 35°27' E 139°41'0 0.0
2017-Oct-24 02:56N 35°27' E 139°41'0 0.0
2017-Oct-24 02:29N 35°27' E 139°41'0 0.0
2017-Oct-24 01:44N 35°27' E 139°41'0 0.0
2017-Oct-24 01:29N 35°27' E 139°41'0 0.0
2017-Oct-24 00:59N 35°27' E 139°41'0 0.0
2017-Oct-24 00:23N 35°27' E 139°41'0 0.0
2017-Oct-23 23:32N 35°27' E 139°41'0 0.0
2017-Oct-23 23:02N 35°27' E 139°41'0 0.0
2017-Oct-23 22:53N 35°27' E 139°41'0 0.0
2017-Oct-23 22:26N 35°27' E 139°41'0 0.0
2017-Oct-23 21:44N 35°27' E 139°41'0 0.0
2017-Oct-23 21:23N 35°27' E 139°41'0 0.0
2017-Oct-23 20:53N 35°27' E 139°41'0 0.0
2017-Oct-23 20:29N 35°27' E 139°41'0 0.0
2017-Oct-23 19:56N 35°27' E 139°41'0 0.0
2017-Oct-23 19:08N 35°27' E 139°41'0 0.0
2017-Oct-23 17:44N 35°27' E 139°41'0 0.0
2017-Oct-23 14:02N 35°27' E 139°41'0 0.0
2017-Oct-23 10:41N 35°27' E 139°41'0 0.0
2017-Oct-23 08:47N 35°27' E 139°41'0 0.0
2017-Oct-23 08:29N 35°27' E 139°41'0 0.0
2017-Oct-23 07:44N 35°27' E 139°41'0 0.0
2017-Oct-23 07:23N 35°27' E 139°41'0 0.0
2017-Oct-23 06:56N 35°27' E 139°41'0 0.0
2017-Oct-23 06:23N 35°27' E 139°41'0 0.0
2017-Oct-23 05:59N 35°27' E 139°41'0 0.0
2017-Oct-23 05:17N 35°27' E 139°41'0 0.0
2017-Oct-23 04:47N 35°27' E 139°41'0 0.0
2017-Oct-23 04:29N 35°27' E 139°41'0 0.0
2017-Oct-23 03:35N 35°27' E 139°41'0 0.0
2017-Oct-23 03:29N 35°27' E 139°41'0 0.0
2017-Oct-23 02:56N 35°27' E 139°41'0 0.0
2017-Oct-23 02:11N 35°27' E 139°41'0 0.0
2017-Oct-23 01:53N 35°27' E 139°41'0 0.0
2017-Oct-23 01:15N 35°27' E 139°41'0 0.0
2017-Oct-23 00:24N 35°27' E 139°41'0 0.0
2017-Oct-22 23:59N 35°27' E 139°41'0 0.0
2017-Oct-22 23:29N 35°27' E 139°41'0 0.0
2017-Oct-22 22:59N 35°27' E 139°41'0 0.0
2017-Oct-22 22:29N 35°27' E 139°41'0 0.0
2017-Oct-22 21:44N 35°27' E 139°41'0 0.0
2017-Oct-22 21:26N 35°27' E 139°41'0 0.0
2017-Oct-22 20:59N 35°27' E 139°41'0 0.0
2017-Oct-22 20:29N 35°27' E 139°41'0 0.0
2017-Oct-22 19:59N 35°27' E 139°41'0 0.0
2017-Oct-22 19:26N 35°27' E 139°41'0 0.0
2017-Oct-22 18:59N 35°27' E 139°41'0 0.0
2017-Oct-22 18:23N 35°27' E 139°41'0 0.0
2017-Oct-22 17:59N 35°27' E 139°41'0 0.0
2017-Oct-22 17:29N 35°27' E 139°41'0 0.0
2017-Oct-22 16:56N 35°27' E 139°41'0 0.0
2017-Oct-22 16:26N 35°27' E 139°41'0 0.0
2017-Oct-22 15:45N 35°27' E 139°41'0 0.0
2017-Oct-22 15:29N 35°27' E 139°41'0 0.0
2017-Oct-22 14:59N 35°27' E 139°41'0 0.0
2017-Oct-22 14:29N 35°27' E 139°41'0 0.0
2017-Oct-22 13:59N 35°27' E 139°41'0 0.0
2017-Oct-22 13:20N 35°27' E 139°41'0 0.0
2017-Oct-22 12:59N 35°27' E 139°41'0 0.0
2017-Oct-22 12:29N 35°27' E 139°41'0 0.0
2017-Oct-22 11:59N 35°27' E 139°41'0 0.0
2017-Oct-22 11:29N 35°27' E 139°41'0 0.0
2017-Oct-22 10:59N 35°27' E 139°41'0 0.0
2017-Oct-22 10:29N 35°27' E 139°41'0 0.0
2017-Oct-22 09:59N 35°27' E 139°41'0 0.0
2017-Oct-22 09:29N 35°27' E 139°41'0 0.0
2017-Oct-22 08:59N 35°27' E 139°41'0 0.0
2017-Oct-22 08:23N 35°27' E 139°41'0 0.0
2017-Oct-22 07:51N 35°27' E 139°41'0 0.0
2017-Oct-22 07:29N 35°27' E 139°41'0 0.0
2017-Oct-22 06:59N 35°27' E 139°41'0 0.0
2017-Oct-22 06:20N 35°27' E 139°41'0 0.0
2017-Oct-22 05:08N 35°27' E 139°41'0 0.0
2017-Oct-22 04:23N 35°27' E 139°41'0 0.0
2017-Oct-22 02:47N 35°27' E 139°41'0 0.0
2017-Oct-22 01:32N 35°27' E 139°41'0 0.0
2017-Oct-22 01:29N 35°27' E 139°41'0 0.0
2017-Oct-22 00:59N 35°27' E 139°41'0 0.0
2017-Oct-22 00:23N 35°27' E 139°41'0 0.0
2017-Oct-21 23:05N 35°27' E 139°41'0 0.0
2017-Oct-21 22:53N 35°27' E 139°41'0 0.0
2017-Oct-21 22:22N 35°27' E 139°41'3 6.0
2017-Oct-21 21:55N 35°26' E 139°44'1 3.5
2017-Oct-21 21:30N 35°25' E 139°44'1 0.2
2017-Oct-21 18:01N 35°24' E 139°45'0 0.0
2017-Oct-21 17:52N 35°24' E 139°45'0 0.1
2017-Oct-21 17:01N 35°24' E 139°45'0 0.0
2017-Oct-21 16:58N 35°24' E 139°45'0 0.0
2017-Oct-21 11:46N 35°24' E 139°45'0 0.0
2017-Oct-21 11:19N 35°24' E 139°45'0 0.0
2017-Oct-21 10:40N 35°24' E 139°45'0 0.0
2017-Oct-21 10:10N 35°24' E 139°45'0 0.0
2017-Oct-21 09:52N 35°24' E 139°45'0 0.1
2017-Oct-21 09:19N 35°24' E 139°45'0 0.1
2017-Oct-21 08:49N 35°24' E 139°45'0 0.0
2017-Oct-21 07:16N 35°24' E 139°45'0 0.0
2017-Oct-21 06:58N 35°24' E 139°45'0 0.1
2017-Oct-21 06:28N 35°24' E 139°45'3 6.3
2017-Oct-21 05:59N 35°21' E 139°43'4 8.4
2017-Oct-21 05:29N 35°17' E 139°45'  
Track history (hours):
 
Tides and Currents Weather Stations Pressure Air Temp Water Temp Dewpoint Dewpoint Depression Visibility Wind Speed Wind Dir Waves Ship Positions

Shin Fuji Maru

Last reported at 2017-Oct-31 05:13 UTC. Time now 2017-Nov-17 23:15 UTC.
Position N 35°02' E 139°41'.
Warning: this ship's position is 17 days out of date.

Length 27 m; draft 4.5 m.

Type: Cargo ship. MMSI: 431300208.

Date/timePositionNaut miles runAvg speedWind from/ knotsBaromVisibWave heightAir tempDewpointWater temp
2017-Oct-31 05:13N 35°02' E 139°41'2 9.6
2017-Oct-31 05:00N 35°04' E 139°42'5 9.6
2017-Oct-31 04:29N 35°09' E 139°45'5 9.7
2017-Oct-31 03:59N 35°13' E 139°46'7 9.3
2017-Oct-31 03:12N 35°20' E 139°43'2 9.4
2017-Oct-31 02:59N 35°22' E 139°43'5 8.7
2017-Oct-31 02:28N 35°26' E 139°43'2 3.2
2017-Oct-31 01:56N 35°27' E 139°41'0 0.1
2017-Oct-31 01:14N 35°27' E 139°41'0 0.0
2017-Oct-31 00:56N 35°27' E 139°41'0 0.0
2017-Oct-31 00:20N 35°27' E 139°41'0 0.0
2017-Oct-30 23:59N 35°27' E 139°41'0 0.0
2017-Oct-30 23:29N 35°27' E 139°41'0 0.0
2017-Oct-30 22:56N 35°27' E 139°41'0 0.0
2017-Oct-30 22:08N 35°27' E 139°41'0 0.0
2017-Oct-30 21:59N 35°27' E 139°41'0 0.0
2017-Oct-30 21:23N 35°27' E 139°41'0 0.0
2017-Oct-30 20:53N 35°27' E 139°41'0 0.0
2017-Oct-30 20:29N 35°27' E 139°41'0 0.0
2017-Oct-30 19:56N 35°27' E 139°41'0 0.0
2017-Oct-30 19:23N 35°27' E 139°41'0 0.0
2017-Oct-30 18:53N 35°27' E 139°41'0 0.0
2017-Oct-30 18:23N 35°27' E 139°41'0 0.0
2017-Oct-30 17:59N 35°27' E 139°41'0 0.0
2017-Oct-30 17:29N 35°27' E 139°41'0 0.0
2017-Oct-30 16:59N 35°27' E 139°41'0 0.0
2017-Oct-30 16:29N 35°27' E 139°41'0 0.0
2017-Oct-30 15:53N 35°27' E 139°41'0 0.0
2017-Oct-30 15:29N 35°27' E 139°41'0 0.0
2017-Oct-30 14:56N 35°27' E 139°41'0 0.0
2017-Oct-30 14:29N 35°27' E 139°41'0 0.0
2017-Oct-30 13:26N 35°27' E 139°41'0 0.0
2017-Oct-30 12:59N 35°27' E 139°41'0 0.0
2017-Oct-30 12:26N 35°27' E 139°41'0 0.0
2017-Oct-30 11:53N 35°27' E 139°41'0 0.0
2017-Oct-30 11:20N 35°27' E 139°41'0 0.0
2017-Oct-30 10:59N 35°27' E 139°41'0 0.0
2017-Oct-30 10:29N 35°27' E 139°41'0 0.0
2017-Oct-30 09:59N 35°27' E 139°41'0 0.0
2017-Oct-30 09:26N 35°27' E 139°41'0 0.0
2017-Oct-30 08:53N 35°27' E 139°41'0 0.0
2017-Oct-30 08:29N 35°27' E 139°41'0 0.0
2017-Oct-30 07:53N 35°27' E 139°41'0 0.0
2017-Oct-30 07:26N 35°27' E 139°41'0 0.0
2017-Oct-30 06:59N 35°27' E 139°41'0 0.0
2017-Oct-30 06:20N 35°27' E 139°41'0 0.0
2017-Oct-30 05:56N 35°27' E 139°41'0 0.0
2017-Oct-30 05:23N 35°27' E 139°41'0 0.0
2017-Oct-30 04:38N 35°27' E 139°41'0 0.0
2017-Oct-30 04:23N 35°27' E 139°41'0 0.0
2017-Oct-30 03:59N 35°27' E 139°41'0 0.0
2017-Oct-30 03:29N 35°27' E 139°41'0 0.0
2017-Oct-30 02:56N 35°27' E 139°41'0 0.0
2017-Oct-30 02:23N 35°27' E 139°41'0 0.0
2017-Oct-30 01:59N 35°27' E 139°41'0 0.0
2017-Oct-30 01:29N 35°27' E 139°41'0 0.0
2017-Oct-30 00:59N 35°27' E 139°41'0 0.0
2017-Oct-30 00:29N 35°27' E 139°41'0 0.0
2017-Oct-29 23:56N 35°27' E 139°41'0 0.0
2017-Oct-29 23:29N 35°27' E 139°41'0 0.0
2017-Oct-29 22:59N 35°27' E 139°41'0 0.0
2017-Oct-29 22:26N 35°27' E 139°41'0 0.0
2017-Oct-29 21:59N 35°27' E 139°41'0 0.0
2017-Oct-29 21:29N 35°27' E 139°41'0 0.0
2017-Oct-29 20:59N 35°27' E 139°41'0 0.0
2017-Oct-29 20:23N 35°27' E 139°41'0 0.0
2017-Oct-29 19:59N 35°27' E 139°41'0 0.0
2017-Oct-29 19:29N 35°27' E 139°41'0 0.0
2017-Oct-29 18:44N 35°27' E 139°41'0 0.0
2017-Oct-29 18:29N 35°27' E 139°41'0 0.0
2017-Oct-29 17:50N 35°27' E 139°41'0 0.0
2017-Oct-29 17:23N 35°27' E 139°41'0 0.0
2017-Oct-29 16:56N 35°27' E 139°41'0 0.0
2017-Oct-29 16:29N 35°27' E 139°41'0 0.0
2017-Oct-29 15:53N 35°27' E 139°41'0 0.0
2017-Oct-29 15:29N 35°27' E 139°41'0 0.0
2017-Oct-29 14:56N 35°27' E 139°41'0 0.0
2017-Oct-29 14:20N 35°27' E 139°41'0 0.0
2017-Oct-29 13:59N 35°27' E 139°41'0 0.0
2017-Oct-29 13:29N 35°27' E 139°41'0 0.0
2017-Oct-29 12:56N 35°27' E 139°41'0 0.0
2017-Oct-29 12:17N 35°27' E 139°41'0 0.0
2017-Oct-29 11:59N 35°27' E 139°41'0 0.0
2017-Oct-29 11:29N 35°27' E 139°41'0 0.0
2017-Oct-29 10:35N 35°27' E 139°41'0 0.0
2017-Oct-29 10:14N 35°27' E 139°41'0 0.0
2017-Oct-29 09:59N 35°27' E 139°41'0 0.0
2017-Oct-29 09:17N 35°27' E 139°41'0 0.0
2017-Oct-29 08:59N 35°27' E 139°41'0 0.0
2017-Oct-29 08:29N 35°27' E 139°41'0 0.0
2017-Oct-29 07:59N 35°27' E 139°41'0 0.0
2017-Oct-29 07:29N 35°27' E 139°41'0 0.0
2017-Oct-29 06:57N 35°27' E 139°41'0 0.0
2017-Oct-29 06:29N 35°27' E 139°41'0 0.0
2017-Oct-29 05:53N 35°27' E 139°41'0 0.0
2017-Oct-29 05:26N 35°27' E 139°41'0 0.0
2017-Oct-29 04:59N 35°27' E 139°41'0 0.0
2017-Oct-29 03:50N 35°27' E 139°41'0 0.0
2017-Oct-28 17:11N 35°27' E 139°41'0 0.0
2017-Oct-28 16:53N 35°27' E 139°41'0 0.0
2017-Oct-28 16:23N 35°27' E 139°41'0 0.0
2017-Oct-28 15:59N 35°27' E 139°41'0 0.0
2017-Oct-28 15:29N 35°27' E 139°41'0 0.0
2017-Oct-28 14:35N 35°27' E 139°41'0 0.0
2017-Oct-28 14:26N 35°27' E 139°41'0 0.0
2017-Oct-28 13:59N 35°27' E 139°41'0 0.0
2017-Oct-28 13:26N 35°27' E 139°41'0 0.0
2017-Oct-28 12:56N 35°27' E 139°41'0 0.0
2017-Oct-28 12:29N 35°27' E 139°41'0 0.0
2017-Oct-28 11:17N 35°27' E 139°41'0 0.0
2017-Oct-28 10:47N 35°27' E 139°41'0 0.0
2017-Oct-28 10:20N 35°27' E 139°41'0 0.0
2017-Oct-28 09:56N 35°27' E 139°41'0 0.0
2017-Oct-28 09:29N 35°27' E 139°41'0 0.0
2017-Oct-28 08:26N 35°27' E 139°41'0 0.0
2017-Oct-28 07:53N 35°27' E 139°41'0 0.0
2017-Oct-28 07:29N 35°27' E 139°41'0 0.0
2017-Oct-28 06:11N 35°27' E 139°41'0 0.0
2017-Oct-28 05:35N 35°27' E 139°41'0 0.0
2017-Oct-28 05:14N 35°27' E 139°41'0 0.0
2017-Oct-28 04:44N 35°27' E 139°41'0 0.0
2017-Oct-28 03:47N 35°27' E 139°41'0 0.0
2017-Oct-28 03:14N 35°27' E 139°41'0 0.0
2017-Oct-28 02:53N 35°27' E 139°41'0 0.0
2017-Oct-28 02:17N 35°27' E 139°41'0 0.0
2017-Oct-28 01:53N 35°27' E 139°41'0 0.0
2017-Oct-28 01:23N 35°27' E 139°41'0 0.0
2017-Oct-27 23:53N 35°27' E 139°41'0 0.0
2017-Oct-27 23:29N 35°27' E 139°41'0 0.0
2017-Oct-27 22:59N 35°27' E 139°41'0 0.0
2017-Oct-27 22:20N 35°27' E 139°41'0 0.0
2017-Oct-27 21:56N 35°27' E 139°41'0 0.0
2017-Oct-27 21:26N 35°27' E 139°41'0 0.0
2017-Oct-27 20:47N 35°27' E 139°41'0 0.0
2017-Oct-27 20:26N 35°27' E 139°41'0 0.0
2017-Oct-27 14:41N 35°27' E 139°41'0 0.0
2017-Oct-27 14:17N 35°27' E 139°41'0 0.0
2017-Oct-27 12:50N 35°27' E 139°41'0 0.0
2017-Oct-27 12:14N 35°27' E 139°41'0 0.0
2017-Oct-27 11:59N 35°27' E 139°41'0 0.0
2017-Oct-27 11:26N 35°27' E 139°41'0 0.0
2017-Oct-27 10:59N 35°27' E 139°41'0 0.0
2017-Oct-27 10:23N 35°27' E 139°41'0 0.0
2017-Oct-27 09:50N 35°27' E 139°41'0 0.0
2017-Oct-27 09:17N 35°27' E 139°41'0 0.0
2017-Oct-27 08:59N 35°27' E 139°41'0 0.0
2017-Oct-27 08:17N 35°27' E 139°41'0 0.0
2017-Oct-27 07:59N 35°27' E 139°41'0 0.0
2017-Oct-27 07:29N 35°27' E 139°41'0 0.0
2017-Oct-27 06:59N 35°27' E 139°41'0 0.0
2017-Oct-27 06:23N 35°27' E 139°41'0 0.0
2017-Oct-27 05:56N 35°27' E 139°41'0 0.0
2017-Oct-27 05:26N 35°27' E 139°41'0 0.0
2017-Oct-27 04:38N 35°27' E 139°41'0 0.0
2017-Oct-27 04:11N 35°27' E 139°41'0 0.0
2017-Oct-27 03:53N 35°27' E 139°41'0 0.0
2017-Oct-27 02:56N 35°27' E 139°41'0 0.0
2017-Oct-27 02:29N 35°27' E 139°41'0 0.0
2017-Oct-27 01:47N 35°27' E 139°41'0 0.0
2017-Oct-27 01:02N 35°27' E 139°41'0 0.0
2017-Oct-27 00:53N 35°27' E 139°41'0 0.0
2017-Oct-27 00:29N 35°27' E 139°41'0 0.0
2017-Oct-26 23:56N 35°27' E 139°41'0 0.0
2017-Oct-26 23:14N 35°27' E 139°41'0 0.0
2017-Oct-26 22:50N 35°27' E 139°41'0 0.0
2017-Oct-26 22:26N 35°27' E 139°41'0 0.0
2017-Oct-26 21:59N 35°27' E 139°41'0 0.0
2017-Oct-26 21:26N 35°27' E 139°41'0 0.0
2017-Oct-26 20:59N 35°27' E 139°41'0 0.0
2017-Oct-26 20:23N 35°27' E 139°41'0 0.0
2017-Oct-26 19:59N 35°27' E 139°41'0 0.0
2017-Oct-26 19:17N 35°27' E 139°41'0 0.0
2017-Oct-26 18:50N 35°27' E 139°41'0 0.0
2017-Oct-26 17:05N 35°27' E 139°41'0 0.0
2017-Oct-26 16:44N 35°27' E 139°41'0 0.0
2017-Oct-26 16:20N 35°27' E 139°41'0 0.0
2017-Oct-26 15:05N 35°27' E 139°41'0 0.0
2017-Oct-26 14:59N 35°27' E 139°41'0 0.0
2017-Oct-26 13:35N 35°27' E 139°41'0 0.0
2017-Oct-26 13:29N 35°27' E 139°41'0 0.0
2017-Oct-26 12:59N 35°27' E 139°41'0 0.0
2017-Oct-26 12:29N 35°27' E 139°41'0 0.0
2017-Oct-26 11:44N 35°27' E 139°41'0 0.0
2017-Oct-26 11:29N 35°27' E 139°41'0 0.0
2017-Oct-26 10:59N 35°27' E 139°41'0 0.0
2017-Oct-26 10:29N 35°27' E 139°41'0 0.0
2017-Oct-26 09:11N 35°27' E 139°41'0 0.0
2017-Oct-26 08:59N 35°27' E 139°41'0 0.0
2017-Oct-26 08:29N 35°27' E 139°41'0 0.0
2017-Oct-26 07:59N 35°27' E 139°41'0 0.0
2017-Oct-26 07:29N 35°27' E 139°41'0 0.0
2017-Oct-26 06:53N 35°27' E 139°41'0 0.0
2017-Oct-26 06:23N 35°27' E 139°41'0 0.0
2017-Oct-26 05:56N 35°27' E 139°41'0 0.0
2017-Oct-26 05:20N 35°27' E 139°41'0 0.0
2017-Oct-26 04:59N 35°27' E 139°41'0 0.0
2017-Oct-26 03:17N 35°27' E 139°41'0 0.0
2017-Oct-26 02:56N 35°27' E 139°41'0 0.0
2017-Oct-26 02:20N 35°27' E 139°41'0 0.0
2017-Oct-26 01:59N 35°27' E 139°41'0 0.0
2017-Oct-26 00:29N 35°27' E 139°41'0 0.0
2017-Oct-25 23:53N 35°27' E 139°41'0 0.0
2017-Oct-25 23:26N 35°27' E 139°41'0 0.0
2017-Oct-25 22:56N 35°27' E 139°41'0 0.0
2017-Oct-25 22:29N 35°27' E 139°41'0 0.0
2017-Oct-25 21:53N 35°27' E 139°41'0 0.0
2017-Oct-25 21:17N 35°27' E 139°41'0 0.0
2017-Oct-25 20:56N 35°27' E 139°41'0 0.0
2017-Oct-25 19:02N 35°27' E 139°41'0 0.0
2017-Oct-25 18:59N 35°27' E 139°41'0 0.0
2017-Oct-25 18:26N 35°27' E 139°41'0 0.0
2017-Oct-25 16:29N 35°27' E 139°41'0 0.0
2017-Oct-25 15:44N 35°27' E 139°41'0 0.0
2017-Oct-25 14:41N 35°27' E 139°41'0 0.0
2017-Oct-25 14:17N 35°27' E 139°41'0 0.0
2017-Oct-25 13:50N 35°27' E 139°41'0 0.0
2017-Oct-25 11:41N 35°27' E 139°41'0 0.0
2017-Oct-25 11:29N 35°27' E 139°41'0 0.0
2017-Oct-25 09:53N 35°27' E 139°41'0 0.0
2017-Oct-25 09:23N 35°27' E 139°41'0 0.0
2017-Oct-25 08:59N 35°27' E 139°41'0 0.0
2017-Oct-25 08:02N 35°27' E 139°41'0 0.0
2017-Oct-25 07:50N 35°27' E 139°41'0 0.0
2017-Oct-25 07:17N 35°27' E 139°41'0 0.0
2017-Oct-25 06:53N 35°27' E 139°41'0 0.0
2017-Oct-25 06:20N 35°27' E 139°41'0 0.0
2017-Oct-25 05:56N 35°27' E 139°41'0 0.0
2017-Oct-25 05:26N 35°27' E 139°41'0 0.0
2017-Oct-25 04:59N 35°27' E 139°41'0 0.0
2017-Oct-25 04:26N 35°27' E 139°41'0 0.0
2017-Oct-25 03:56N 35°27' E 139°41'0 0.0
2017-Oct-25 03:26N 35°27' E 139°41'0 0.0
2017-Oct-25 02:50N 35°27' E 139°41'0 0.0
2017-Oct-25 02:17N 35°27' E 139°41'0 0.0
2017-Oct-25 01:47N 35°27' E 139°41'0 0.0
2017-Oct-25 01:26N 35°27' E 139°41'0 0.0
2017-Oct-25 00:56N 35°27' E 139°41'0 0.0
2017-Oct-25 00:26N 35°27' E 139°41'0 0.0
2017-Oct-24 23:59N 35°27' E 139°41'0 0.0
2017-Oct-24 23:17N 35°27' E 139°41'0 0.0
2017-Oct-24 22:47N 35°27' E 139°41'0 0.0
2017-Oct-24 22:29N 35°27' E 139°41'0 0.0
2017-Oct-24 21:38N 35°27' E 139°41'0 0.0
2017-Oct-24 21:23N 35°27' E 139°41'0 0.0
2017-Oct-24 20:53N 35°27' E 139°41'0 0.0
2017-Oct-24 20:29N 35°27' E 139°41'0 0.0
2017-Oct-24 17:02N 35°27' E 139°41'0 0.0
2017-Oct-24 16:56N 35°27' E 139°41'0 0.0
2017-Oct-24 16:29N 35°27' E 139°41'0 0.0
2017-Oct-24 15:53N 35°27' E 139°41'0 0.0
2017-Oct-24 15:11N 35°27' E 139°41'0 0.0
2017-Oct-24 14:47N 35°27' E 139°41'0 0.0
2017-Oct-24 14:20N 35°27' E 139°41'0 0.0
2017-Oct-24 13:59N 35°27' E 139°41'0 0.0
2017-Oct-24 13:17N 35°27' E 139°41'0 0.0
2017-Oct-24 12:53N 35°27' E 139°41'0 0.0
2017-Oct-24 12:29N 35°27' E 139°41'0 0.0
2017-Oct-24 11:47N 35°27' E 139°41'0 0.0
2017-Oct-24 11:29N 35°27' E 139°41'0 0.0
2017-Oct-24 10:56N 35°27' E 139°41'0 0.0
2017-Oct-24 09:38N 35°27' E 139°41'0 0.0
2017-Oct-24 09:29N 35°27' E 139°41'0 0.0
2017-Oct-24 08:59N 35°27' E 139°41'0 0.0
2017-Oct-24 08:29N 35°27' E 139°41'0 0.0
2017-Oct-24 07:56N 35°27' E 139°41'0 0.0
2017-Oct-24 07:29N 35°27' E 139°41'0 0.0
2017-Oct-24 06:50N 35°27' E 139°41'0 0.0
2017-Oct-24 06:02N 35°27' E 139°41'0 0.0
2017-Oct-24 04:47N 35°27' E 139°41'0 0.0
2017-Oct-24 04:23N 35°27' E 139°41'0 0.0
2017-Oct-24 03:53N 35°27' E 139°41'0 0.0
2017-Oct-24 03:29N 35°27' E 139°41'0 0.0
2017-Oct-24 02:56N 35°27' E 139°41'0 0.0
2017-Oct-24 02:29N 35°27' E 139°41'0 0.0
2017-Oct-24 01:44N 35°27' E 139°41'0 0.0
2017-Oct-24 01:29N 35°27' E 139°41'0 0.0
2017-Oct-24 00:59N 35°27' E 139°41'0 0.0
2017-Oct-24 00:23N 35°27' E 139°41'0 0.0
2017-Oct-23 23:32N 35°27' E 139°41'0 0.0
2017-Oct-23 23:02N 35°27' E 139°41'0 0.0
2017-Oct-23 22:53N 35°27' E 139°41'0 0.0
2017-Oct-23 22:26N 35°27' E 139°41'0 0.0
2017-Oct-23 21:44N 35°27' E 139°41'0 0.0
2017-Oct-23 21:23N 35°27' E 139°41'0 0.0
2017-Oct-23 20:53N 35°27' E 139°41'0 0.0
2017-Oct-23 20:29N 35°27' E 139°41'0 0.0
2017-Oct-23 19:56N 35°27' E 139°41'0 0.0
2017-Oct-23 19:08N 35°27' E 139°41'0 0.0
2017-Oct-23 17:44N 35°27' E 139°41'0 0.0
2017-Oct-23 14:02N 35°27' E 139°41'0 0.0
2017-Oct-23 10:41N 35°27' E 139°41'0 0.0
2017-Oct-23 08:47N 35°27' E 139°41'0 0.0
2017-Oct-23 08:29N 35°27' E 139°41'0 0.0
2017-Oct-23 07:44N 35°27' E 139°41'0 0.0
2017-Oct-23 07:23N 35°27' E 139°41'0 0.0
2017-Oct-23 06:56N 35°27' E 139°41'0 0.0
2017-Oct-23 06:23N 35°27' E 139°41'0 0.0
2017-Oct-23 05:59N 35°27' E 139°41'0 0.0
2017-Oct-23 05:17N 35°27' E 139°41'0 0.0
2017-Oct-23 04:47N 35°27' E 139°41'0 0.0
2017-Oct-23 04:29N 35°27' E 139°41'0 0.0
2017-Oct-23 03:35N 35°27' E 139°41'0 0.0
2017-Oct-23 03:29N 35°27' E 139°41'0 0.0
2017-Oct-23 02:56N 35°27' E 139°41'0 0.0
2017-Oct-23 02:11N 35°27' E 139°41'0 0.0
2017-Oct-23 01:53N 35°27' E 139°41'0 0.0
2017-Oct-23 01:15N 35°27' E 139°41'0 0.0
2017-Oct-23 00:24N 35°27' E 139°41'0 0.0
2017-Oct-22 23:59N 35°27' E 139°41'0 0.0
2017-Oct-22 23:29N 35°27' E 139°41'0 0.0
2017-Oct-22 22:59N 35°27' E 139°41'0 0.0
2017-Oct-22 22:29N 35°27' E 139°41'0 0.0
2017-Oct-22 21:44N 35°27' E 139°41'0 0.0
2017-Oct-22 21:26N 35°27' E 139°41'0 0.0
2017-Oct-22 20:59N 35°27' E 139°41'0 0.0
2017-Oct-22 20:29N 35°27' E 139°41'0 0.0
2017-Oct-22 19:59N 35°27' E 139°41'0 0.0
2017-Oct-22 19:26N 35°27' E 139°41'0 0.0
2017-Oct-22 18:59N 35°27' E 139°41'0 0.0
2017-Oct-22 18:23N 35°27' E 139°41'0 0.0
2017-Oct-22 17:59N 35°27' E 139°41'0 0.0
2017-Oct-22 17:29N 35°27' E 139°41'0 0.0
2017-Oct-22 16:56N 35°27' E 139°41'0 0.0
2017-Oct-22 16:26N 35°27' E 139°41'0 0.0
2017-Oct-22 15:45N 35°27' E 139°41'0 0.0
2017-Oct-22 15:29N 35°27' E 139°41'0 0.0
2017-Oct-22 14:59N 35°27' E 139°41'0 0.0
2017-Oct-22 14:29N 35°27' E 139°41'0 0.0
2017-Oct-22 13:59N 35°27' E 139°41'0 0.0
2017-Oct-22 13:20N 35°27' E 139°41'0 0.0
2017-Oct-22 12:59N 35°27' E 139°41'0 0.0
2017-Oct-22 12:29N 35°27' E 139°41'0 0.0
2017-Oct-22 11:59N 35°27' E 139°41'0 0.0
2017-Oct-22 11:29N 35°27' E 139°41'0 0.0
2017-Oct-22 10:59N 35°27' E 139°41'0 0.0
2017-Oct-22 10:29N 35°27' E 139°41'0 0.0
2017-Oct-22 09:59N 35°27' E 139°41'0 0.0
2017-Oct-22 09:29N 35°27' E 139°41'0 0.0
2017-Oct-22 08:59N 35°27' E 139°41'0 0.0
2017-Oct-22 08:23N 35°27' E 139°41'0 0.0
2017-Oct-22 07:51N 35°27' E 139°41'0 0.0
2017-Oct-22 07:29N 35°27' E 139°41'0 0.0
2017-Oct-22 06:59N 35°27' E 139°41'0 0.0
2017-Oct-22 06:20N 35°27' E 139°41'0 0.0
2017-Oct-22 05:08N 35°27' E 139°41'0 0.0
2017-Oct-22 04:23N 35°27' E 139°41'0 0.0
2017-Oct-22 02:47N 35°27' E 139°41'0 0.0
2017-Oct-22 01:32N 35°27' E 139°41'0 0.0
2017-Oct-22 01:29N 35°27' E 139°41'0 0.0
2017-Oct-22 00:59N 35°27' E 139°41'0 0.0
2017-Oct-22 00:23N 35°27' E 139°41'0 0.0
2017-Oct-21 23:05N 35°27' E 139°41'0 0.0
2017-Oct-21 22:53N 35°27' E 139°41'0 0.0
2017-Oct-21 22:22N 35°27' E 139°41'3 6.0
2017-Oct-21 21:55N 35°26' E 139°44'1 3.5
2017-Oct-21 21:30N 35°25' E 139°44'1 0.2
2017-Oct-21 18:01N 35°24' E 139°45'0 0.0
2017-Oct-21 17:52N 35°24' E 139°45'0 0.1
2017-Oct-21 17:01N 35°24' E 139°45'0 0.0
2017-Oct-21 16:58N 35°24' E 139°45'0 0.0
2017-Oct-21 11:46N 35°24' E 139°45'0 0.0
2017-Oct-21 11:19N 35°24' E 139°45'0 0.0
2017-Oct-21 10:40N 35°24' E 139°45'0 0.0
2017-Oct-21 10:10N 35°24' E 139°45'0 0.0
2017-Oct-21 09:52N 35°24' E 139°45'0 0.1
2017-Oct-21 09:19N 35°24' E 139°45'0 0.1
2017-Oct-21 08:49N 35°24' E 139°45'0 0.0
2017-Oct-21 07:16N 35°24' E 139°45'0 0.0
2017-Oct-21 06:58N 35°24' E 139°45'0 0.1
2017-Oct-21 06:28N 35°24' E 139°45'3 6.3
2017-Oct-21 05:59N 35°21' E 139°43'4 8.4
2017-Oct-21 05:29N 35°17' E 139°45'  

Dump ship's entire track history